Ogden/Hill AFB, Utah
Current Conditions -  °F | °C
As of 1:58 AM on Monday 22 Dec 2014 (Local Time) from KHIF Reporting Station
Overcast Overcast  
Wind Chill: 35°   Ceiling: 4000
Heat Index: 39°   Visibility: 10mi
Dew Point: 35°   Wind: 6mph
Humidity: 84%   Direction: 210°SSW
Pressure: 30.02"   Gusts: NA
Location:  41.12°N, 111.97°W
Report Text: KHIF 220858Z AUTO 21005KT 10SM OVC040 04/02 A3002 RMK AO2 SLP159 T00400016 55003
Loading
Personal Weather Stations






























Interactive Weather Map New forecast layout! Learn more

10-Day Weather Forecast

Advertisements
Track Severe Weather on mobile